Dana, IL (61321)

5:49 PM CDT on September 01, 2015 (GMT -0500)
APRSWXNET | | Change Station
CLOSE
Current Station
Personal Weather Station
Location: Woodford, IL
Elevation: 771 ft
Nearby Weather Stations

Elev 771 ft 40.89 °N, 89.03 °W | Updated 30 minutes ago

Clear
Clear
87 °F
Feels Like 96 °F
N
2
Wind Variable Wind from SW
Gusts 5.0 mph

Today
High -- | Low -- °F
--% Chance of Precip.
Yesterday
High -- | Low -- °F
Precip. -- in
6:22 AM 7:28 PM
Waning Gibbous, 86% visible
Pressure 30.03 in
Visibility 10.0 miles
Clouds Clear
Heat Index 96 °F
Dew Point 75 °F
Humidity 67%
Rainfall in
Snow Depth Not available.
UV 2 out of 12
Pollen 10.90 out of 12
Air Quality Not available.
Flu Activity Not available.
METAR KPNT 012235Z AUTO 18009KT 10SM CLR 31/24 A3003 RMK AO2 T03100237
Pressure 30.03 in
Visibility 10.0 miles
Clouds Clear
Heat Index 96 °F
Dew Point 75 °F
Humidity 67%
Rainfall in
Snow Depth Not available.
UV 2 out of 12
Pollen 10.90 out of 12
Air Quality Not available.
Flu Activity Not available.
METAR KPNT 012235Z AUTO 18009KT 10SM CLR 31/24 A3003 RMK AO2 T03100237

10-Day Weather Forecast

×

Almanac

Astronomy

Sep. 01, 2015 Rise Set
Actual Time
Civil Twilight
Nautical Twilight
Astronomical Twilight
Moon
Length of Visible Light
Length of Day
Tomorrow will be .
, % of the Moon is Illuminated

Today's Extremes

State Highs State Lows

Community

WunderPhotos

Upload Photos

1,851,634 photos uploaded!

WunderBlogs® & News

Nearby

Air Quality

  Air Quality AQ Index Pollutant
Not available.

Snow Depth

Station Depth Elevation

Earthquake Activity

City Distance Mag. Time & Date
Minimum magnitude displayed is 2.5.

Coastal Water Temperatures

Place Temperature

Stations

Nearby Weather Stations

Station Location Temp. Windchill Dew Point Humidity Wind Precip. Elev Updated Type